ESSAESSV

Guest
Details From ESSA - Stockholm Arlanda
To ESSV - Visby
Flight Number -
Tags Generated
Created
Modified
Stats Distance 120 nm / 221 km
Max Altitude 0 ft / 0 m
Waypoints 3
Social Downloads 3
Likes 0
Share VATSIM

Download

Looking for another format? Having issues loading an existing format? Contact us
Advertisement - Login to hide

Notes

Generated

Route

ESSA VSB ESSV

ID Type Via Altitude Latitude Longitude Leg Dist Tot Dist Heading (true) Name
O ESSA APT - 0 ft / 0 m 59.62640˚ 17.95074˚ - 0 nm - -
VSB VOR - 0 ft / 0 m 57.65953˚ 18.34686˚ 118 nm 118 nm 174° / 174° VISBY VOR-DME
O ESSV APT - 0 ft / 0 m 57.65099˚ 18.32965˚ 0 nm 119 nm 227° / 227° -

Altitude Profile

Advertisement - Login to hide

ESSA

Details ICAO ESSA (ARN)
Name Stockholm Arlanda
Region Sweden
Timezone Europe/Stockholm (UTC+1.0)
Stats Elevation 137 ft / 42 m (AMSL)
Location 59.650140° 17.943628°
Runways 3
Magnetic Variation 6.102° E

METAR

ESSA 160120Z 26005KT 0250 R01L/1100U R19R/0750N R01R/1200U R19L/1300N FG OVC002 00/00 Q0991 R01L/29//76 R01R/520270 R08/29//73 TEMPO 3000 -SN

Decode

TAF

TAF ESSA 152330Z 1600/1624 27005KT 0300 FG VV002 TEMPO 1600/1609 5000 -SNRA OVC005 BECMG 1609/1611 36010KT 9999 NSW SCT005 BKN015 PROB40 1611/1620 2000 SHSN BKN008 BKN020TCU

Decode

Departure Runways

ID Width Length Bearing (true) Bearing (mag) Surface Threshold Offset Overrun Length
01L 148 ft / 45 m 10,812 ft / 3,296 m 10.35° 4.25° Concrete 0 ft / 0 m 0 ft / 0 m
01R 148 ft / 45 m 8,188 ft / 2,496 m 10.38° 4.28° Asphalt 0 ft / 0 m 0 ft / 0 m
08 148 ft / 45 m 8,178 ft / 2,493 m 75.83° 69.73° Concrete 0 ft / 0 m 0 ft / 0 m
19L 148 ft / 45 m 8,188 ft / 2,496 m 190.39° 184.29° Asphalt 0 ft / 0 m 0 ft / 0 m
19R 148 ft / 45 m 10,812 ft / 3,296 m 190.36° 184.26° Concrete 0 ft / 0 m 0 ft / 0 m
26 148 ft / 45 m 8,178 ft / 2,493 m 255.87° 249.77° Concrete 0 ft / 0 m 0 ft / 0 m

ESSV

Details ICAO ESSV (VBY)
Name Visby
Region Sweden
Timezone Europe/Stockholm (UTC+1.0)
Stats Elevation 164 ft / 50 m (AMSL)
Location 57.656405° 18.342448°
Runways 2
Magnetic Variation 5.914° E

METAR

ESSV 160120Z AUTO 27009KT 9999 OVC023/// 03/M02 Q0994

Decode

TAF

Not found

Destination Runways

ID Width Length Bearing (true) Bearing (mag) Surface Threshold Offset Overrun Length
03 148 ft / 45 m 6,552 ft / 1,997 m 20.95° 15.04° Asphalt 0 ft / 0 m 0 ft / 0 m
10 131 ft / 40 m 3,599 ft / 1,097 m 101.41° 95.50° Grass 0 ft / 0 m 0 ft / 0 m
21 148 ft / 45 m 6,552 ft / 1,997 m 200.96° 195.05° Asphalt 0 ft / 0 m 0 ft / 0 m
28 131 ft / 40 m 3,599 ft / 1,097 m 281.43° 275.52° Grass 0 ft / 0 m 0 ft / 0 m

Approach Navaids

Runway Type Ident Frequency Range Bearing (true) Bearing (mag) Slope Elevation
21 Localiser SV 110.30 MHz 18 nm / 33 km 200.95° 195.04° - 164 ft / 50 m (AMSL)
21 Glidescope SV 110.30 MHz 10 nm / 19 km 200.95° 195.04° 3.00° 164 ft / 50 m (AMSL)

Popular Alternatives